sensor_id;sensor_type;location;lat;lon;timestamp;P1;durP1;ratioP1;P2;durP2;ratioP2
3331;SDS011;1678;50.94845400;5.30809100;2022-12-18T00:00:05;61.97;;;25.10;;
3331;SDS011;1678;50.94845400;5.30809100;2022-12-18T00:02:34;73.05;;;36.40;;
3331;SDS011;1678;50.94845400;5.30809100;2022-12-18T00:05:03;72.40;;;32.30;;
3331;SDS011;1678;50.94845400;5.30809100;2022-12-18T00:07:32;69.88;;;29.92;;
3331;SDS011;1678;50.94845400;5.30809100;2022-12-18T00:10:00;73.03;;;29.33;;
3331;SDS011;1678;50.94845400;5.30809100;2022-12-18T00:12:28;54.08;;;25.15;;
3331;SDS011;1678;50.94845400;5.30809100;2022-12-18T00:14:56;52.13;;;26.27;;
3331;SDS011;1678;50.94845400;5.30809100;2022-12-18T00:17:25;50.17;;;24.98;;
3331;SDS011;1678;50.94845400;5.30809100;2022-12-18T00:19:54;48.08;;;26.90;;
3331;SDS011;1678;50.94845400;5.30809100;2022-12-18T00:22:22;48.35;;;25.83;;
3331;SDS011;1678;50.94845400;5.30809100;2022-12-18T00:24:50;49.53;;;21.77;;
3331;SDS011;1678;50.94845400;5.30809100;2022-12-18T00:27:18;49.80;;;25.20;;
3331;SDS011;1678;50.94845400;5.30809100;2022-12-18T00:29:47;46.45;;;23.00;;
3331;SDS011;1678;50.94845400;5.30809100;2022-12-18T00:32:16;60.53;;;26.00;;
3331;SDS011;1678;50.94845400;5.30809100;2022-12-18T00:34:45;61.08;;;26.40;;
3331;SDS011;1678;50.94845400;5.30809100;2022-12-18T00:37:13;53.92;;;23.58;;
3331;SDS011;1678;50.94845400;5.30809100;2022-12-18T00:39:47;55.25;;;23.33;;
3331;SDS011;1678;50.94845400;5.30809100;2022-12-18T00:42:15;57.22;;;24.35;;
3331;SDS011;1678;50.94845400;5.30809100;2022-12-18T00:45:01;46.70;;;22.60;;
3331;SDS011;1678;50.94845400;5.30809100;2022-12-18T00:47:37;55.85;;;26.88;;
3331;SDS011;1678;50.94845400;5.30809100;2022-12-18T00:50:07;53.72;;;26.30;;
3331;SDS011;1678;50.94845400;5.30809100;2022-12-18T00:52:36;55.72;;;24.10;;
3331;SDS011;1678;50.94845400;5.30809100;2022-12-18T00:55:05;45.08;;;25.35;;
3331;SDS011;1678;50.94845400;5.30809100;2022-12-18T00:57:33;45.33;;;21.38;;
3331;SDS011;1678;50.94845400;5.30809100;2022-12-18T01:00:02;49.60;;;23.27;;
3331;SDS011;1678;50.94845400;5.30809100;2022-12-18T01:02:31;37.42;;;21.25;;
3331;SDS011;1678;50.94845400;5.30809100;2022-12-18T01:04:59;58.53;;;26.08;;
3331;SDS011;1678;50.94845400;5.30809100;2022-12-18T01:07:29;50.35;;;24.05;;
3331;SDS011;1678;50.94845400;5.30809100;2022-12-18T01:09:58;56.30;;;24.83;;
3331;SDS011;1678;50.94845400;5.30809100;2022-12-18T01:12:26;43.70;;;21.92;;
3331;SDS011;1678;50.94845400;5.30809100;2022-12-18T01:14:54;50.88;;;23.65;;
3331;SDS011;1678;50.94845400;5.30809100;2022-12-18T01:17:22;46.42;;;22.77;;
3331;SDS011;1678;50.94845400;5.30809100;2022-12-18T01:19:50;47.20;;;25.80;;
3331;SDS011;1678;50.94845400;5.30809100;2022-12-18T01:22:18;41.08;;;22.77;;
3331;SDS011;1678;50.94845400;5.30809100;2022-12-18T01:24:48;51.25;;;25.50;;
3331;SDS011;1678;50.94845400;5.30809100;2022-12-18T01:27:16;44.88;;;23.02;;
3331;SDS011;1678;50.94845400;5.30809100;2022-12-18T01:29:44;34.92;;;20.08;;
3331;SDS011;1678;50.94845400;5.30809100;2022-12-18T01:32:12;46.35;;;21.25;;
3331;SDS011;1678;50.94845400;5.30809100;2022-12-18T01:34:40;48.60;;;23.55;;
3331;SDS011;1678;50.94845400;5.30809100;2022-12-18T01:37:08;48.28;;;21.05;;
3331;SDS011;1678;50.94845400;5.30809100;2022-12-18T01:39:36;43.85;;;22.08;;
3331;SDS011;1678;50.94845400;5.30809100;2022-12-18T01:42:08;41.20;;;18.48;;
3331;SDS011;1678;50.94845400;5.30809100;2022-12-18T01:44:55;44.05;;;20.00;;
3331;SDS011;1678;50.94845400;5.30809100;2022-12-18T01:47:39;33.88;;;20.73;;
3331;SDS011;1678;50.94845400;5.30809100;2022-12-18T01:50:12;44.20;;;23.35;;
3331;SDS011;1678;50.94845400;5.30809100;2022-12-18T01:52:42;43.30;;;21.98;;
3331;SDS011;1678;50.94845400;5.30809100;2022-12-18T01:55:13;37.10;;;19.75;;
3331;SDS011;1678;50.94845400;5.30809100;2022-12-18T01:57:46;48.97;;;22.35;;
3331;SDS011;1678;50.94845400;5.30809100;2022-12-18T02:00:16;34.40;;;19.35;;
3331;SDS011;1678;50.94845400;5.30809100;2022-12-18T02:02:45;40.70;;;18.38;;
3331;SDS011;1678;50.94845400;5.30809100;2022-12-18T02:05:15;37.15;;;20.23;;
3331;SDS011;1678;50.94845400;5.30809100;2022-12-18T02:07:47;41.17;;;19.80;;
3331;SDS011;1678;50.94845400;5.30809100;2022-12-18T02:10:26;42.35;;;19.90;;
3331;SDS011;1678;50.94845400;5.30809100;2022-12-18T02:13:01;42.55;;;17.73;;
3331;SDS011;1678;50.94845400;5.30809100;2022-12-18T02:15:37;49.00;;;20.02;;
3331;SDS011;1678;50.94845400;5.30809100;2022-12-18T02:18:08;40.38;;;17.98;;
3331;SDS011;1678;50.94845400;5.30809100;2022-12-18T02:20:40;39.60;;;20.00;;
3331;SDS011;1678;50.94845400;5.30809100;2022-12-18T02:23:14;34.38;;;17.23;;
3331;SDS011;1678;50.94845400;5.30809100;2022-12-18T02:28:46;37.08;;;20.40;;
3331;SDS011;1678;50.94845400;5.30809100;2022-12-18T02:31:19;32.85;;;18.80;;
3331;SDS011;1678;50.94845400;5.30809100;2022-12-18T02:33:51;38.60;;;18.60;;
3331;SDS011;1678;50.94845400;5.30809100;2022-12-18T02:36:21;36.05;;;18.88;;
3331;SDS011;1678;50.94845400;5.30809100;2022-12-18T02:38:51;30.75;;;18.13;;
3331;SDS011;1678;50.94845400;5.30809100;2022-12-18T02:41:25;43.22;;;17.42;;
3331;SDS011;1678;50.94845400;5.30809100;2022-12-18T02:43:55;47.00;;;19.77;;
3331;SDS011;1678;50.94845400;5.30809100;2022-12-18T02:46:33;36.63;;;18.55;;
3331;SDS011;1678;50.94845400;5.30809100;2022-12-18T02:49:10;24.50;;;15.98;;
3331;SDS011;1678;50.94845400;5.30809100;2022-12-18T02:51:49;28.88;;;16.55;;
3331;SDS011;1678;50.94845400;5.30809100;2022-12-18T02:54:23;33.47;;;18.83;;
3331;SDS011;1678;50.94845400;5.30809100;2022-12-18T02:57:03;46.35;;;18.38;;
3331;SDS011;1678;50.94845400;5.30809100;2022-12-18T02:59:41;37.60;;;19.25;;
3331;SDS011;1678;50.94845400;5.30809100;2022-12-18T03:02:18;30.95;;;17.20;;
3331;SDS011;1678;50.94845400;5.30809100;2022-12-18T03:04:52;33.75;;;17.73;;
3331;SDS011;1678;50.94845400;5.30809100;2022-12-18T03:07:26;33.33;;;19.05;;
3331;SDS011;1678;50.94845400;5.30809100;2022-12-18T03:10:00;37.08;;;18.10;;
3331;SDS011;1678;50.94845400;5.30809100;2022-12-18T03:12:31;36.53;;;16.83;;
3331;SDS011;1678;50.94845400;5.30809100;2022-12-18T03:15:02;30.33;;;17.17;;
3331;SDS011;1678;50.94845400;5.30809100;2022-12-18T03:17:41;34.75;;;15.60;;
3331;SDS011;1678;50.94845400;5.30809100;2022-12-18T03:20:16;33.55;;;16.65;;
3331;SDS011;1678;50.94845400;5.30809100;2022-12-18T03:22:47;26.45;;;16.13;;
3331;SDS011;1678;50.94845400;5.30809100;2022-12-18T03:25:19;34.88;;;17.80;;
3331;SDS011;1678;50.94845400;5.30809100;2022-12-18T03:27:51;29.63;;;15.80;;
3331;SDS011;1678;50.94845400;5.30809100;2022-12-18T03:30:23;31.27;;;17.50;;
3331;SDS011;1678;50.94845400;5.30809100;2022-12-18T03:32:54;43.10;;;17.73;;
3331;SDS011;1678;50.94845400;5.30809100;2022-12-18T03:35:29;32.50;;;17.40;;
3331;SDS011;1678;50.94845400;5.30809100;2022-12-18T03:38:00;23.95;;;14.45;;
3331;SDS011;1678;50.94845400;5.30809100;2022-12-18T03:40:31;30.88;;;14.82;;
3331;SDS011;1678;50.94845400;5.30809100;2022-12-18T03:43:10;33.28;;;16.35;;
3331;SDS011;1678;50.94845400;5.30809100;2022-12-18T03:45:42;28.30;;;15.45;;
3331;SDS011;1678;50.94845400;5.30809100;2022-12-18T03:48:16;29.83;;;16.65;;
3331;SDS011;1678;50.94845400;5.30809100;2022-12-18T03:50:49;29.52;;;17.23;;
3331;SDS011;1678;50.94845400;5.30809100;2022-12-18T03:53:25;27.10;;;14.90;;
3331;SDS011;1678;50.94845400;5.30809100;2022-12-18T03:56:02;25.70;;;16.73;;
3331;SDS011;1678;50.94845400;5.30809100;2022-12-18T03:58:33;30.45;;;15.93;;
3331;SDS011;1678;50.94845400;5.30809100;2022-12-18T04:01:03;31.23;;;18.00;;
3331;SDS011;1678;50.94845400;5.30809100;2022-12-18T04:03:37;23.92;;;15.38;;
3331;SDS011;1678;50.94845400;5.30809100;2022-12-18T04:06:06;26.42;;;14.95;;
3331;SDS011;1678;50.94845400;5.30809100;2022-12-18T04:08:35;36.17;;;16.90;;
3331;SDS011;1678;50.94845400;5.30809100;2022-12-18T04:11:04;36.95;;;13.60;;
3331;SDS011;1678;50.94845400;5.30809100;2022-12-18T04:13:35;29.48;;;14.00;;
3331;SDS011;1678;50.94845400;5.30809100;2022-12-18T04:16:04;26.75;;;15.48;;
3331;SDS011;1678;50.94845400;5.30809100;2022-12-18T04:18:33;35.53;;;15.63;;
3331;SDS011;1678;50.94845400;5.30809100;2022-12-18T04:21:02;33.28;;;17.80;;
3331;SDS011;1678;50.94845400;5.30809100;2022-12-18T04:23:30;35.03;;;16.25;;
3331;SDS011;1678;50.94845400;5.30809100;2022-12-18T04:25:58;27.80;;;15.85;;
3331;SDS011;1678;50.94845400;5.30809100;2022-12-18T04:28:26;46.47;;;15.45;;
3331;SDS011;1678;50.94845400;5.30809100;2022-12-18T04:30:56;29.27;;;16.98;;
3331;SDS011;1678;50.94845400;5.30809100;2022-12-18T04:33:24;27.45;;;12.85;;
3331;SDS011;1678;50.94845400;5.30809100;2022-12-18T04:35:52;24.35;;;14.60;;
3331;SDS011;1678;50.94845400;5.30809100;2022-12-18T04:38:20;25.88;;;15.07;;
3331;SDS011;1678;50.94845400;5.30809100;2022-12-18T04:40:48;27.40;;;14.77;;
3331;SDS011;1678;50.94845400;5.30809100;2022-12-18T04:43:16;26.67;;;14.85;;
3331;SDS011;1678;50.94845400;5.30809100;2022-12-18T04:45:44;30.75;;;15.93;;
3331;SDS011;1678;50.94845400;5.30809100;2022-12-18T04:48:14;32.65;;;14.98;;
3331;SDS011;1678;50.94845400;5.30809100;2022-12-18T04:50:42;41.45;;;18.17;;
3331;SDS011;1678;50.94845400;5.30809100;2022-12-18T04:53:10;31.98;;;15.68;;
3331;SDS011;1678;50.94845400;5.30809100;2022-12-18T04:55:38;32.15;;;16.35;;
3331;SDS011;1678;50.94845400;5.30809100;2022-12-18T04:58:06;23.88;;;13.15;;
3331;SDS011;1678;50.94845400;5.30809100;2022-12-18T05:00:34;34.97;;;15.85;;
3331;SDS011;1678;50.94845400;5.30809100;2022-12-18T05:03:02;36.22;;;16.30;;
3331;SDS011;1678;50.94845400;5.30809100;2022-12-18T05:05:33;30.23;;;17.27;;
3331;SDS011;1678;50.94845400;5.30809100;2022-12-18T05:08:02;23.40;;;12.45;;
3331;SDS011;1678;50.94845400;5.30809100;2022-12-18T05:10:30;29.17;;;16.40;;
3331;SDS011;1678;50.94845400;5.30809100;2022-12-18T05:13:03;26.92;;;14.82;;
3331;SDS011;1678;50.94845400;5.30809100;2022-12-18T05:15:31;26.85;;;13.82;;
3331;SDS011;1678;50.94845400;5.30809100;2022-12-18T05:18:01;26.60;;;12.18;;
3331;SDS011;1678;50.94845400;5.30809100;2022-12-18T05:20:29;25.27;;;13.18;;
3331;SDS011;1678;50.94845400;5.30809100;2022-12-18T05:22:59;24.13;;;15.55;;
3331;SDS011;1678;50.94845400;5.30809100;2022-12-18T05:25:27;31.65;;;14.02;;
3331;SDS011;1678;50.94845400;5.30809100;2022-12-18T05:27:56;26.05;;;13.70;;
3331;SDS011;1678;50.94845400;5.30809100;2022-12-18T05:30:25;36.38;;;14.23;;
3331;SDS011;1678;50.94845400;5.30809100;2022-12-18T05:32:53;38.03;;;14.27;;
3331;SDS011;1678;50.94845400;5.30809100;2022-12-18T05:35:22;23.33;;;13.05;;
3331;SDS011;1678;50.94845400;5.30809100;2022-12-18T05:37:50;27.65;;;15.45;;
3331;SDS011;1678;50.94845400;5.30809100;2022-12-18T05:40:19;26.17;;;12.82;;
3331;SDS011;1678;50.94845400;5.30809100;2022-12-18T05:42:47;29.13;;;12.32;;
3331;SDS011;1678;50.94845400;5.30809100;2022-12-18T05:45:15;25.02;;;14.07;;
3331;SDS011;1678;50.94845400;5.30809100;2022-12-18T05:47:43;18.30;;;12.95;;
3331;SDS011;1678;50.94845400;5.30809100;2022-12-18T05:50:11;30.38;;;13.70;;
3331;SDS011;1678;50.94845400;5.30809100;2022-12-18T05:52:39;25.52;;;12.40;;
3331;SDS011;1678;50.94845400;5.30809100;2022-12-18T05:55:08;20.42;;;11.73;;
3331;SDS011;1678;50.94845400;5.30809100;2022-12-18T05:57:37;28.60;;;14.13;;
3331;SDS011;1678;50.94845400;5.30809100;2022-12-18T06:00:06;20.05;;;11.20;;
3331;SDS011;1678;50.94845400;5.30809100;2022-12-18T06:02:35;24.65;;;13.52;;
3331;SDS011;1678;50.94845400;5.30809100;2022-12-18T06:05:04;24.20;;;12.90;;
3331;SDS011;1678;50.94845400;5.30809100;2022-12-18T06:07:32;25.23;;;12.80;;
3331;SDS011;1678;50.94845400;5.30809100;2022-12-18T06:10:00;18.92;;;11.10;;
3331;SDS011;1678;50.94845400;5.30809100;2022-12-18T06:12:29;30.90;;;13.68;;
3331;SDS011;1678;50.94845400;5.30809100;2022-12-18T06:14:58;25.55;;;13.38;;
3331;SDS011;1678;50.94845400;5.30809100;2022-12-18T06:17:27;24.75;;;13.55;;
3331;SDS011;1678;50.94845400;5.30809100;2022-12-18T06:19:56;25.63;;;12.27;;
3331;SDS011;1678;50.94845400;5.30809100;2022-12-18T06:22:24;26.75;;;13.15;;
3331;SDS011;1678;50.94845400;5.30809100;2022-12-18T06:24:53;26.85;;;11.80;;
3331;SDS011;1678;50.94845400;5.30809100;2022-12-18T06:27:21;19.15;;;10.70;;
3331;SDS011;1678;50.94845400;5.30809100;2022-12-18T06:29:49;22.67;;;11.98;;
3331;SDS011;1678;50.94845400;5.30809100;2022-12-18T06:32:18;23.95;;;13.98;;
3331;SDS011;1678;50.94845400;5.30809100;2022-12-18T06:34:47;22.80;;;12.73;;
3331;SDS011;1678;50.94845400;5.30809100;2022-12-18T06:37:15;19.95;;;12.73;;
3331;SDS011;1678;50.94845400;5.30809100;2022-12-18T06:39:43;21.55;;;13.68;;
3331;SDS011;1678;50.94845400;5.30809100;2022-12-18T06:42:11;17.08;;;11.10;;
3331;SDS011;1678;50.94845400;5.30809100;2022-12-18T06:44:39;23.42;;;13.32;;
3331;SDS011;1678;50.94845400;5.30809100;2022-12-18T06:47:08;21.88;;;10.25;;
3331;SDS011;1678;50.94845400;5.30809100;2022-12-18T06:49:37;16.10;;;10.25;;
3331;SDS011;1678;50.94845400;5.30809100;2022-12-18T06:52:05;17.70;;;10.90;;
3331;SDS011;1678;50.94845400;5.30809100;2022-12-18T06:54:34;11.70;;;9.90;;
3331;SDS011;1678;50.94845400;5.30809100;2022-12-18T06:57:02;24.23;;;12.75;;
3331;SDS011;1678;50.94845400;5.30809100;2022-12-18T06:59:30;28.80;;;10.70;;
3331;SDS011;1678;50.94845400;5.30809100;2022-12-18T07:01:58;23.40;;;11.88;;
3331;SDS011;1678;50.94845400;5.30809100;2022-12-18T07:04:27;14.27;;;10.07;;
3331;SDS011;1678;50.94845400;5.30809100;2022-12-18T07:06:57;20.98;;;9.45;;
3331;SDS011;1678;50.94845400;5.30809100;2022-12-18T07:09:25;23.05;;;11.73;;
3331;SDS011;1678;50.94845400;5.30809100;2022-12-18T07:11:56;22.10;;;10.95;;
3331;SDS011;1678;50.94845400;5.30809100;2022-12-18T07:14:24;14.80;;;10.27;;
3331;SDS011;1678;50.94845400;5.30809100;2022-12-18T07:16:53;32.30;;;13.98;;
3331;SDS011;1678;50.94845400;5.30809100;2022-12-18T07:19:24;31.13;;;12.32;;
3331;SDS011;1678;50.94845400;5.30809100;2022-12-18T07:21:52;21.58;;;9.00;;
3331;SDS011;1678;50.94845400;5.30809100;2022-12-18T07:24:22;12.75;;;9.45;;
3331;SDS011;1678;50.94845400;5.30809100;2022-12-18T07:26:50;15.55;;;9.85;;
3331;SDS011;1678;50.94845400;5.30809100;2022-12-18T07:29:18;14.00;;;10.18;;
3331;SDS011;1678;50.94845400;5.30809100;2022-12-18T07:31:46;19.02;;;10.18;;
3331;SDS011;1678;50.94845400;5.30809100;2022-12-18T07:34:15;11.60;;;7.55;;
3331;SDS011;1678;50.94845400;5.30809100;2022-12-18T07:36:44;20.08;;;8.98;;
3331;SDS011;1678;50.94845400;5.30809100;2022-12-18T07:39:12;11.85;;;7.38;;
3331;SDS011;1678;50.94845400;5.30809100;2022-12-18T07:41:42;13.35;;;8.98;;
3331;SDS011;1678;50.94845400;5.30809100;2022-12-18T07:44:30;21.38;;;10.52;;
3331;SDS011;1678;50.94845400;5.30809100;2022-12-18T07:46:58;20.23;;;9.30;;
3331;SDS011;1678;50.94845400;5.30809100;2022-12-18T07:49:27;17.52;;;9.10;;
3331;SDS011;1678;50.94845400;5.30809100;2022-12-18T07:51:55;16.77;;;8.70;;
3331;SDS011;1678;50.94845400;5.30809100;2022-12-18T07:54:24;25.17;;;10.35;;
3331;SDS011;1678;50.94845400;5.30809100;2022-12-18T07:56:54;27.75;;;10.88;;
3331;SDS011;1678;50.94845400;5.30809100;2022-12-18T07:59:22;20.83;;;10.93;;
3331;SDS011;1678;50.94845400;5.30809100;2022-12-18T08:01:50;28.65;;;13.43;;
3331;SDS011;1678;50.94845400;5.30809100;2022-12-18T08:04:19;23.40;;;12.68;;
3331;SDS011;1678;50.94845400;5.30809100;2022-12-18T08:06:47;22.40;;;10.88;;
3331;SDS011;1678;50.94845400;5.30809100;2022-12-18T08:09:15;22.48;;;9.85;;
3331;SDS011;1678;50.94845400;5.30809100;2022-12-18T08:11:43;18.63;;;11.07;;
3331;SDS011;1678;50.94845400;5.30809100;2022-12-18T08:14:13;24.50;;;10.82;;
3331;SDS011;1678;50.94845400;5.30809100;2022-12-18T08:16:41;10.93;;;8.95;;
3331;SDS011;1678;50.94845400;5.30809100;2022-12-18T08:19:10;18.80;;;13.25;;
3331;SDS011;1678;50.94845400;5.30809100;2022-12-18T08:21:38;19.02;;;10.32;;
3331;SDS011;1678;50.94845400;5.30809100;2022-12-18T08:24:06;18.40;;;11.88;;
3331;SDS011;1678;50.94845400;5.30809100;2022-12-18T08:26:36;12.68;;;9.13;;
3331;SDS011;1678;50.94845400;5.30809100;2022-12-18T08:29:04;22.25;;;12.38;;
3331;SDS011;1678;50.94845400;5.30809100;2022-12-18T08:31:34;18.65;;;11.30;;
3331;SDS011;1678;50.94845400;5.30809100;2022-12-18T08:34:03;14.15;;;11.88;;
3331;SDS011;1678;50.94845400;5.30809100;2022-12-18T08:36:31;29.63;;;12.48;;
3331;SDS011;1678;50.94845400;5.30809100;2022-12-18T08:38:59;17.90;;;12.30;;
3331;SDS011;1678;50.94845400;5.30809100;2022-12-18T08:41:27;16.55;;;12.35;;
3331;SDS011;1678;50.94845400;5.30809100;2022-12-18T08:43:56;18.23;;;10.30;;
3331;SDS011;1678;50.94845400;5.30809100;2022-12-18T08:46:43;19.10;;;10.10;;
3331;SDS011;1678;50.94845400;5.30809100;2022-12-18T08:49:11;28.00;;;11.65;;
3331;SDS011;1678;50.94845400;5.30809100;2022-12-18T08:51:40;14.60;;;9.68;;
3331;SDS011;1678;50.94845400;5.30809100;2022-12-18T08:54:09;20.65;;;11.15;;
3331;SDS011;1678;50.94845400;5.30809100;2022-12-18T08:56:39;17.38;;;11.43;;
3331;SDS011;1678;50.94845400;5.30809100;2022-12-18T08:59:08;22.05;;;11.98;;
3331;SDS011;1678;50.94845400;5.30809100;2022-12-18T09:01:45;14.95;;;10.25;;
3331;SDS011;1678;50.94845400;5.30809100;2022-12-18T09:04:14;17.77;;;10.32;;
3331;SDS011;1678;50.94845400;5.30809100;2022-12-18T09:06:42;13.75;;;10.23;;
3331;SDS011;1678;50.94845400;5.30809100;2022-12-18T09:09:11;32.00;;;11.63;;
3331;SDS011;1678;50.94845400;5.30809100;2022-12-18T09:11:39;17.65;;;11.90;;
3331;SDS011;1678;50.94845400;5.30809100;2022-12-18T09:14:07;19.08;;;12.00;;
3331;SDS011;1678;50.94845400;5.30809100;2022-12-18T09:16:37;21.55;;;10.95;;
3331;SDS011;1678;50.94845400;5.30809100;2022-12-18T09:19:06;18.58;;;9.70;;
3331;SDS011;1678;50.94845400;5.30809100;2022-12-18T09:21:37;19.65;;;12.35;;
3331;SDS011;1678;50.94845400;5.30809100;2022-12-18T09:24:13;23.75;;;11.50;;
3331;SDS011;1678;50.94845400;5.30809100;2022-12-18T09:26:41;18.52;;;9.27;;
3331;SDS011;1678;50.94845400;5.30809100;2022-12-18T09:29:13;15.77;;;11.93;;
3331;SDS011;1678;50.94845400;5.30809100;2022-12-18T09:31:44;22.33;;;11.43;;
3331;SDS011;1678;50.94845400;5.30809100;2022-12-18T09:34:14;47.55;;;11.02;;
3331;SDS011;1678;50.94845400;5.30809100;2022-12-18T09:36:42;25.63;;;12.57;;
3331;SDS011;1678;50.94845400;5.30809100;2022-12-18T09:39:12;17.15;;;11.73;;
3331;SDS011;1678;50.94845400;5.30809100;2022-12-18T09:41:42;22.25;;;13.27;;
3331;SDS011;1678;50.94845400;5.30809100;2022-12-18T09:44:17;18.88;;;13.05;;
3331;SDS011;1678;50.94845400;5.30809100;2022-12-18T09:46:51;17.65;;;12.55;;
3331;SDS011;1678;50.94845400;5.30809100;2022-12-18T09:49:25;19.73;;;11.68;;
3331;SDS011;1678;50.94845400;5.30809100;2022-12-18T09:51:57;23.73;;;12.23;;
3331;SDS011;1678;50.94845400;5.30809100;2022-12-18T09:54:31;25.60;;;14.07;;
3331;SDS011;1678;50.94845400;5.30809100;2022-12-18T09:57:03;32.05;;;14.25;;
3331;SDS011;1678;50.94845400;5.30809100;2022-12-18T09:59:32;16.65;;;11.23;;
3331;SDS011;1678;50.94845400;5.30809100;2022-12-18T10:02:11;23.65;;;14.90;;
3331;SDS011;1678;50.94845400;5.30809100;2022-12-18T10:04:43;23.75;;;12.43;;
3331;SDS011;1678;50.94845400;5.30809100;2022-12-18T10:07:19;17.30;;;12.57;;
3331;SDS011;1678;50.94845400;5.30809100;2022-12-18T10:09:56;21.40;;;13.13;;
3331;SDS011;1678;50.94845400;5.30809100;2022-12-18T10:12:31;23.70;;;12.68;;
3331;SDS011;1678;50.94845400;5.30809100;2022-12-18T10:15:10;19.13;;;13.65;;
3331;SDS011;1678;50.94845400;5.30809100;2022-12-18T10:17:44;16.52;;;11.52;;
3331;SDS011;1678;50.94845400;5.30809100;2022-12-18T10:20:21;18.52;;;13.10;;
3331;SDS011;1678;50.94845400;5.30809100;2022-12-18T10:22:57;18.67;;;13.68;;
3331;SDS011;1678;50.94845400;5.30809100;2022-12-18T10:25:33;24.92;;;13.45;;
3331;SDS011;1678;50.94845400;5.30809100;2022-12-18T10:28:07;20.58;;;11.38;;
3331;SDS011;1678;50.94845400;5.30809100;2022-12-18T10:30:41;18.98;;;12.05;;
3331;SDS011;1678;50.94845400;5.30809100;2022-12-18T10:33:11;17.48;;;11.27;;
3331;SDS011;1678;50.94845400;5.30809100;2022-12-18T10:35:42;17.38;;;11.30;;
3331;SDS011;1678;50.94845400;5.30809100;2022-12-18T10:38:22;16.60;;;10.73;;
3331;SDS011;1678;50.94845400;5.30809100;2022-12-18T10:40:53;16.30;;;12.88;;
3331;SDS011;1678;50.94845400;5.30809100;2022-12-18T10:43:23;22.00;;;12.50;;
3331;SDS011;1678;50.94845400;5.30809100;2022-12-18T10:48:48;20.73;;;11.57;;
3331;SDS011;1678;50.94845400;5.30809100;2022-12-18T10:51:24;26.17;;;14.60;;
3331;SDS011;1678;50.94845400;5.30809100;2022-12-18T10:53:57;26.90;;;14.85;;
3331;SDS011;1678;50.94845400;5.30809100;2022-12-18T10:56:29;17.60;;;13.15;;
3331;SDS011;1678;50.94845400;5.30809100;2022-12-18T10:59:01;18.00;;;13.45;;
3331;SDS011;1678;50.94845400;5.30809100;2022-12-18T11:01:44;10.18;;;7.03;;
3331;SDS011;1678;50.94845400;5.30809100;2022-12-18T11:04:16;19.52;;;15.20;;
3331;SDS011;1678;50.94845400;5.30809100;2022-12-18T11:06:55;32.17;;;14.25;;
3331;SDS011;1678;50.94845400;5.30809100;2022-12-18T11:09:26;21.50;;;14.15;;
3331;SDS011;1678;50.94845400;5.30809100;2022-12-18T11:11:55;28.33;;;16.15;;
3331;SDS011;1678;50.94845400;5.30809100;2022-12-18T11:14:26;20.38;;;15.20;;
3331;SDS011;1678;50.94845400;5.30809100;2022-12-18T11:16:56;17.08;;;13.73;;
3331;SDS011;1678;50.94845400;5.30809100;2022-12-18T11:19:46;24.65;;;15.57;;
3331;SDS011;1678;50.94845400;5.30809100;2022-12-18T11:22:23;26.40;;;14.30;;
3331;SDS011;1678;50.94845400;5.30809100;2022-12-18T11:24:55;19.58;;;13.55;;
3331;SDS011;1678;50.94845400;5.30809100;2022-12-18T11:27:47;21.48;;;13.85;;
3331;SDS011;1678;50.94845400;5.30809100;2022-12-18T11:30:21;33.42;;;14.02;;
3331;SDS011;1678;50.94845400;5.30809100;2022-12-18T11:32:51;19.17;;;15.50;;
3331;SDS011;1678;50.94845400;5.30809100;2022-12-18T11:35:25;21.52;;;14.07;;
3331;SDS011;1678;50.94845400;5.30809100;2022-12-18T11:38:06;18.67;;;12.50;;
3331;SDS011;1678;50.94845400;5.30809100;2022-12-18T11:40:43;20.50;;;14.45;;
3331;SDS011;1678;50.94845400;5.30809100;2022-12-18T11:43:20;24.20;;;13.85;;
3331;SDS011;1678;50.94845400;5.30809100;2022-12-18T11:45:54;21.08;;;12.75;;
3331;SDS011;1678;50.94845400;5.30809100;2022-12-18T11:48:27;26.63;;;13.95;;
3331;SDS011;1678;50.94845400;5.30809100;2022-12-18T11:50:58;20.42;;;13.95;;
3331;SDS011;1678;50.94845400;5.30809100;2022-12-18T11:53:31;20.10;;;14.10;;
3331;SDS011;1678;50.94845400;5.30809100;2022-12-18T11:56:02;25.98;;;14.75;;
3331;SDS011;1678;50.94845400;5.30809100;2022-12-18T11:58:45;25.35;;;15.60;;
3331;SDS011;1678;50.94845400;5.30809100;2022-12-18T12:01:17;38.40;;;16.13;;
3331;SDS011;1678;50.94845400;5.30809100;2022-12-18T12:06:46;21.70;;;14.65;;
3331;SDS011;1678;50.94845400;5.30809100;2022-12-18T12:09:30;22.92;;;14.75;;
3331;SDS011;1678;50.94845400;5.30809100;2022-12-18T12:12:08;25.05;;;14.10;;
3331;SDS011;1678;50.94845400;5.30809100;2022-12-18T12:14:47;20.42;;;14.60;;
3331;SDS011;1678;50.94845400;5.30809100;2022-12-18T12:17:25;18.95;;;12.38;;
3331;SDS011;1678;50.94845400;5.30809100;2022-12-18T12:20:02;23.45;;;14.80;;
3331;SDS011;1678;50.94845400;5.30809100;2022-12-18T12:22:38;24.25;;;12.75;;
3331;SDS011;1678;50.94845400;5.30809100;2022-12-18T12:25:23;23.73;;;15.30;;
3331;SDS011;1678;50.94845400;5.30809100;2022-12-18T12:28:02;14.10;;;11.32;;
3331;SDS011;1678;50.94845400;5.30809100;2022-12-18T12:30:42;23.55;;;13.05;;
3331;SDS011;1678;50.94845400;5.30809100;2022-12-18T12:33:24;20.45;;;13.82;;
3331;SDS011;1678;50.94845400;5.30809100;2022-12-18T12:36:03;17.38;;;13.32;;
3331;SDS011;1678;50.94845400;5.30809100;2022-12-18T12:38:40;15.88;;;13.05;;
3331;SDS011;1678;50.94845400;5.30809100;2022-12-18T12:41:19;18.80;;;12.95;;
3331;SDS011;1678;50.94845400;5.30809100;2022-12-18T12:44:12;23.10;;;13.85;;
3331;SDS011;1678;50.94845400;5.30809100;2022-12-18T12:46:45;24.67;;;14.55;;
3331;SDS011;1678;50.94845400;5.30809100;2022-12-18T12:49:15;19.40;;;12.35;;
3331;SDS011;1678;50.94845400;5.30809100;2022-12-18T12:51:50;17.85;;;13.52;;
3331;SDS011;1678;50.94845400;5.30809100;2022-12-18T12:54:27;16.52;;;12.98;;
3331;SDS011;1678;50.94845400;5.30809100;2022-12-18T12:56:59;13.63;;;12.13;;
3331;SDS011;1678;50.94845400;5.30809100;2022-12-18T12:59:36;19.88;;;12.70;;
3331;SDS011;1678;50.94845400;5.30809100;2022-12-18T13:02:11;20.80;;;13.40;;
3331;SDS011;1678;50.94845400;5.30809100;2022-12-18T13:04:49;21.60;;;14.38;;
3331;SDS011;1678;50.94845400;5.30809100;2022-12-18T13:07:24;23.65;;;12.38;;
3331;SDS011;1678;50.94845400;5.30809100;2022-12-18T13:10:12;13.73;;;11.48;;
3331;SDS011;1678;50.94845400;5.30809100;2022-12-18T13:12:54;16.83;;;12.73;;
3331;SDS011;1678;50.94845400;5.30809100;2022-12-18T13:15:24;19.55;;;12.10;;
3331;SDS011;1678;50.94845400;5.30809100;2022-12-18T13:21:01;13.95;;;12.55;;
3331;SDS011;1678;50.94845400;5.30809100;2022-12-18T13:23:36;19.60;;;13.90;;